sensor_id;sensor_type;location;lat;lon;timestamp;P1;durP1;ratioP1;P2;durP2;ratioP2
2107;SDS011;1060;52.492;13.388;2023-05-10T00:20:04;10.33;;;6.73;;
2107;SDS011;1060;52.492;13.388;2023-05-10T02:30:33;9.17;;;7.70;;
2107;SDS011;1060;52.492;13.388;2023-05-10T02:37:30;7.73;;;7.13;;
2107;SDS011;1060;52.492;13.388;2023-05-10T03:52:38;7.97;;;7.20;;
2107;SDS011;1060;52.492;13.388;2023-05-10T03:59:47;7.87;;;6.97;;
2107;SDS011;1060;52.492;13.388;2023-05-10T04:06:23;7.53;;;6.57;;
2107;SDS011;1060;52.492;13.388;2023-05-10T04:29:37;6.53;;;6.03;;
2107;SDS011;1060;52.492;13.388;2023-05-10T04:32:04;8.13;;;6.50;;
2107;SDS011;1060;52.492;13.388;2023-05-10T04:34:37;6.73;;;5.67;;
2107;SDS011;1060;52.492;13.388;2023-05-10T04:37:03;7.37;;;6.67;;
2107;SDS011;1060;52.492;13.388;2023-05-10T04:47:05;9.43;;;6.57;;
2107;SDS011;1060;52.492;13.388;2023-05-10T04:50:16;5.73;;;5.23;;
2107;SDS011;1060;52.492;13.388;2023-05-10T04:52:57;6.97;;;6.23;;
2107;SDS011;1060;52.492;13.388;2023-05-10T04:55:44;9.70;;;6.47;;
2107;SDS011;1060;52.492;13.388;2023-05-10T04:58:21;15.33;;;7.13;;
2107;SDS011;1060;52.492;13.388;2023-05-10T05:00:56;6.37;;;5.37;;
2107;SDS011;1060;52.492;13.388;2023-05-10T05:28:16;8.97;;;5.37;;
2107;SDS011;1060;52.492;13.388;2023-05-10T05:49:08;6.90;;;4.90;;
2107;SDS011;1060;52.492;13.388;2023-05-10T05:51:48;4.70;;;4.30;;
2107;SDS011;1060;52.492;13.388;2023-05-10T06:36:36;4.50;;;4.10;;
2107;SDS011;1060;52.492;13.388;2023-05-10T06:39:05;9.33;;;3.93;;
2107;SDS011;1060;52.492;13.388;2023-05-10T06:41:37;4.20;;;3.90;;
2107;SDS011;1060;52.492;13.388;2023-05-10T06:44:06;4.80;;;4.30;;
2107;SDS011;1060;52.492;13.388;2023-05-10T06:46:38;4.37;;;4.00;;
2107;SDS011;1060;52.492;13.388;2023-05-10T06:49:08;3.97;;;3.47;;
2107;SDS011;1060;52.492;13.388;2023-05-10T06:51:38;5.40;;;3.80;;
2107;SDS011;1060;52.492;13.388;2023-05-10T06:54:13;4.60;;;3.70;;
2107;SDS011;1060;52.492;13.388;2023-05-10T06:57:04;3.90;;;3.20;;
2107;SDS011;1060;52.492;13.388;2023-05-10T06:59:51;4.20;;;3.80;;
2107;SDS011;1060;52.492;13.388;2023-05-10T07:02:37;4.37;;;3.97;;
2107;SDS011;1060;52.492;13.388;2023-05-10T07:05:19;7.63;;;5.10;;
2107;SDS011;1060;52.492;13.388;2023-05-10T07:08:01;3.17;;;2.87;;
2107;SDS011;1060;52.492;13.388;2023-05-10T07:10:33;5.03;;;3.93;;
2107;SDS011;1060;52.492;13.388;2023-05-10T07:13:08;6.43;;;4.37;;
2107;SDS011;1060;52.492;13.388;2023-05-10T07:18:58;6.67;;;4.17;;
2107;SDS011;1060;52.492;13.388;2023-05-10T07:21:32;4.63;;;4.23;;
2107;SDS011;1060;52.492;13.388;2023-05-10T07:24:03;10.03;;;3.70;;
2107;SDS011;1060;52.492;13.388;2023-05-10T07:27:11;6.57;;;4.73;;
2107;SDS011;1060;52.492;13.388;2023-05-10T07:29:21;4.73;;;3.87;;
2107;SDS011;1060;52.492;13.388;2023-05-10T07:31:56;3.77;;;3.53;;
2107;SDS011;1060;52.492;13.388;2023-05-10T07:34:25;5.30;;;3.43;;
2107;SDS011;1060;52.492;13.388;2023-05-10T07:39:56;4.60;;;3.70;;
2107;SDS011;1060;52.492;13.388;2023-05-10T07:42:34;3.13;;;2.83;;
2107;SDS011;1060;52.492;13.388;2023-05-10T07:45:34;4.20;;;3.63;;
2107;SDS011;1060;52.492;13.388;2023-05-10T07:48:30;4.50;;;3.80;;
2107;SDS011;1060;52.492;13.388;2023-05-10T07:51:18;11.57;;;4.90;;
2107;SDS011;1060;52.492;13.388;2023-05-10T07:53:54;3.90;;;3.33;;
2107;SDS011;1060;52.492;13.388;2023-05-10T07:56:38;4.60;;;3.90;;
2107;SDS011;1060;52.492;13.388;2023-05-10T07:59:17;4.13;;;3.73;;
2107;SDS011;1060;52.492;13.388;2023-05-10T08:01:47;5.37;;;4.97;;
2107;SDS011;1060;52.492;13.388;2023-05-10T08:04:19;4.43;;;4.03;;
2107;SDS011;1060;52.492;13.388;2023-05-10T08:06:48;5.43;;;4.17;;
2107;SDS011;1060;52.492;13.388;2023-05-10T08:09:18;9.87;;;5.00;;
2107;SDS011;1060;52.492;13.388;2023-05-10T08:11:54;5.73;;;3.67;;
2107;SDS011;1060;52.492;13.388;2023-05-10T08:14:28;8.70;;;4.00;;
2107;SDS011;1060;52.492;13.388;2023-05-10T08:17:05;8.03;;;5.13;;
2107;SDS011;1060;52.492;13.388;2023-05-10T08:19:33;6.80;;;3.30;;
2107;SDS011;1060;52.492;13.388;2023-05-10T08:22:03;4.17;;;3.87;;
2107;SDS011;1060;52.492;13.388;2023-05-10T08:24:29;4.07;;;3.60;;
2107;SDS011;1060;52.492;13.388;2023-05-10T08:26:56;4.23;;;3.77;;
2107;SDS011;1060;52.492;13.388;2023-05-10T08:29:33;3.40;;;3.13;;
2107;SDS011;1060;52.492;13.388;2023-05-10T08:31:59;4.30;;;3.90;;
2107;SDS011;1060;52.492;13.388;2023-05-10T08:34:31;3.10;;;2.90;;
2107;SDS011;1060;52.492;13.388;2023-05-10T08:37:03;5.40;;;3.50;;
2107;SDS011;1060;52.492;13.388;2023-05-10T08:39:43;10.67;;;4.10;;
2107;SDS011;1060;52.492;13.388;2023-05-10T08:42:17;4.50;;;3.50;;
2107;SDS011;1060;52.492;13.388;2023-05-10T08:44:47;4.23;;;2.97;;
2107;SDS011;1060;52.492;13.388;2023-05-10T08:47:30;3.40;;;2.57;;
2107;SDS011;1060;52.492;13.388;2023-05-10T08:50:10;4.90;;;3.37;;
2107;SDS011;1060;52.492;13.388;2023-05-10T08:55:51;5.00;;;3.47;;
2107;SDS011;1060;52.492;13.388;2023-05-10T08:58:17;8.83;;;3.60;;
2107;SDS011;1060;52.492;13.388;2023-05-10T09:00:48;7.40;;;5.97;;
2107;SDS011;1060;52.492;13.388;2023-05-10T09:03:18;3.30;;;3.00;;
2107;SDS011;1060;52.492;13.388;2023-05-10T09:05:48;3.67;;;3.10;;
2107;SDS011;1060;52.492;13.388;2023-05-10T09:08:17;5.60;;;3.40;;
2107;SDS011;1060;52.492;13.388;2023-05-10T09:11:17;12.60;;;4.60;;
2107;SDS011;1060;52.492;13.388;2023-05-10T09:13:56;6.33;;;5.73;;
2107;SDS011;1060;52.492;13.388;2023-05-10T09:19:32;4.67;;;3.53;;
2107;SDS011;1060;52.492;13.388;2023-05-10T09:22:04;6.20;;;5.60;;
2107;SDS011;1060;52.492;13.388;2023-05-10T09:24:38;10.73;;;4.63;;
2107;SDS011;1060;52.492;13.388;2023-05-10T09:27:13;3.97;;;3.67;;
2107;SDS011;1060;52.492;13.388;2023-05-10T09:29:46;10.00;;;5.07;;
2107;SDS011;1060;52.492;13.388;2023-05-10T09:32:39;4.07;;;3.73;;
2107;SDS011;1060;52.492;13.388;2023-05-10T09:35:06;4.37;;;3.97;;
2107;SDS011;1060;52.492;13.388;2023-05-10T09:37:35;9.50;;;4.93;;
2107;SDS011;1060;52.492;13.388;2023-05-10T09:40:14;4.43;;;4.03;;
2107;SDS011;1060;52.492;13.388;2023-05-10T09:42:56;6.67;;;4.80;;
2107;SDS011;1060;52.492;13.388;2023-05-10T09:45:31;5.53;;;3.73;;
2107;SDS011;1060;52.492;13.388;2023-05-10T09:48:05;8.37;;;6.17;;
2107;SDS011;1060;52.492;13.388;2023-05-10T09:51:08;7.97;;;4.80;;
2107;SDS011;1060;52.492;13.388;2023-05-10T09:58:13;5.50;;;3.60;;
2107;SDS011;1060;52.492;13.388;2023-05-10T10:00:53;5.80;;;4.00;;
2107;SDS011;1060;52.492;13.388;2023-05-10T10:06:23;4.43;;;3.60;;
2107;SDS011;1060;52.492;13.388;2023-05-10T10:09:06;6.37;;;4.37;;
2107;SDS011;1060;52.492;13.388;2023-05-10T10:11:57;3.97;;;3.60;;
2107;SDS011;1060;52.492;13.388;2023-05-10T10:14:25;4.70;;;4.00;;
2107;SDS011;1060;52.492;13.388;2023-05-10T10:17:32;3.90;;;3.60;;
2107;SDS011;1060;52.492;13.388;2023-05-10T10:20:17;3.47;;;3.17;;
2107;SDS011;1060;52.492;13.388;2023-05-10T10:22:53;5.23;;;4.73;;
2107;SDS011;1060;52.492;13.388;2023-05-10T10:25:20;6.27;;;3.10;;
2107;SDS011;1060;52.492;13.388;2023-05-10T10:30:51;6.50;;;4.27;;
2107;SDS011;1060;52.492;13.388;2023-05-10T10:33:36;8.80;;;3.77;;
2107;SDS011;1060;52.492;13.388;2023-05-10T10:36:15;6.20;;;4.47;;
2107;SDS011;1060;52.492;13.388;2023-05-10T10:38:55;3.43;;;3.23;;
2107;SDS011;1060;52.492;13.388;2023-05-10T10:41:37;4.33;;;3.90;;
2107;SDS011;1060;52.492;13.388;2023-05-10T10:47:31;3.93;;;3.53;;
2107;SDS011;1060;52.492;13.388;2023-05-10T10:50:09;7.23;;;4.37;;
2107;SDS011;1060;52.492;13.388;2023-05-10T10:52:38;4.00;;;3.43;;
2107;SDS011;1060;52.492;13.388;2023-05-10T10:58:42;3.60;;;3.30;;
2107;SDS011;1060;52.492;13.388;2023-05-10T11:01:17;4.80;;;3.80;;
2107;SDS011;1060;52.492;13.388;2023-05-10T11:06:39;5.53;;;4.40;;
2107;SDS011;1060;52.492;13.388;2023-05-10T11:12:30;3.60;;;3.33;;
2107;SDS011;1060;52.492;13.388;2023-05-10T11:15:11;6.17;;;3.90;;
2107;SDS011;1060;52.492;13.388;2023-05-10T11:47:22;4.50;;;4.07;;
2107;SDS011;1060;52.492;13.388;2023-05-10T11:49:58;4.70;;;3.37;;
2107;SDS011;1060;52.492;13.388;2023-05-10T11:58:28;3.50;;;3.20;;
2107;SDS011;1060;52.492;13.388;2023-05-10T12:01:00;5.20;;;4.70;;
2107;SDS011;1060;52.492;13.388;2023-05-10T12:03:51;4.23;;;3.90;;
2107;SDS011;1060;52.492;13.388;2023-05-10T12:06:19;4.70;;;3.20;;
2107;SDS011;1060;52.492;13.388;2023-05-10T12:09:06;4.23;;;3.83;;
2107;SDS011;1060;52.492;13.388;2023-05-10T13:51:49;5.73;;;4.70;;
2107;SDS011;1060;52.492;13.388;2023-05-10T13:54:33;9.27;;;5.10;;
2107;SDS011;1060;52.492;13.388;2023-05-10T13:57:05;4.60;;;4.20;;
2107;SDS011;1060;52.492;13.388;2023-05-10T13:59:32;5.70;;;4.10;;
2107;SDS011;1060;52.492;13.388;2023-05-10T14:05:19;3.60;;;3.30;;
2107;SDS011;1060;52.492;13.388;2023-05-10T15:53:47;5.10;;;3.20;;
2107;SDS011;1060;52.492;13.388;2023-05-10T15:56:13;6.93;;;4.80;;
2107;SDS011;1060;52.492;13.388;2023-05-10T15:58:40;5.47;;;5.00;;
2107;SDS011;1060;52.492;13.388;2023-05-10T16:01:16;10.07;;;9.13;;
2107;SDS011;1060;52.492;13.388;2023-05-10T16:03:42;5.93;;;3.60;;
2107;SDS011;1060;52.492;13.388;2023-05-10T16:06:11;5.40;;;3.30;;
2107;SDS011;1060;52.492;13.388;2023-05-10T16:09:02;4.33;;;3.87;;
2107;SDS011;1060;52.492;13.388;2023-05-10T16:11:27;8.77;;;4.40;;
2107;SDS011;1060;52.492;13.388;2023-05-10T16:14:11;4.40;;;4.00;;
2107;SDS011;1060;52.492;13.388;2023-05-10T16:19:32;6.83;;;4.50;;
2107;SDS011;1060;52.492;13.388;2023-05-10T16:22:01;5.10;;;4.60;;
2107;SDS011;1060;52.492;13.388;2023-05-10T16:24:33;4.77;;;3.47;;
2107;SDS011;1060;52.492;13.388;2023-05-10T17:36:34;9.37;;;8.43;;
2107;SDS011;1060;52.492;13.388;2023-05-10T17:39:34;8.83;;;7.90;;
2107;SDS011;1060;52.492;13.388;2023-05-10T17:42:08;11.97;;;7.30;;
2107;SDS011;1060;52.492;13.388;2023-05-10T17:44:42;10.43;;;7.00;;
2107;SDS011;1060;52.492;13.388;2023-05-10T17:47:26;9.37;;;8.47;;
2107;SDS011;1060;52.492;13.388;2023-05-10T18:05:12;10.27;;;9.10;;
2107;SDS011;1060;52.492;13.388;2023-05-10T18:15:40;12.40;;;11.30;;
